Time;durP1;ratioP1;P1;durP2;ratioP2;P2;SDS_P1;SDS_P2;PMS_P1;PMS_P2;Temp;Humidity;BMP_temperature;BMP_pressure;BME280_temperature;BME280_humidity;BME280_pressure;Samples;Min_cycle;Max_cycle;Signal;HPM_P1;HPM_P2
2021/04/28 00:02:41;;;;;;;33.4;20.9;;;;;;;-0.41;79.92578;98281.35;;;;
2021/04/28 00:12:38;;;;;;;26.9;20.2;;;;;;;-0.55;80.8877;98282.74;;;;
2021/04/28 00:22:36;;;;;;;25.4;20.5;;;;;;;-0.65;81.12109;98266.72;;;;
2021/04/28 00:32:33;;;;;;;26.3;20.5;;;;;;;-0.78;81.33691;98267.06;;;;
2021/04/28 00:42:30;;;;;;;33;24.2;;;;;;;-0.95;80.81348;98267.08;;;;
2021/04/28 00:52:28;;;;;;;33.3;22.5;;;;;;;-1.05;81.8252;98273.02;;;;
2021/04/28 01:02:25;;;;;;;31.6;21.2;;;;;;;-1.22;81.66992;98268.77;;;;
2021/04/28 01:12:24;;;;;;;26.4;19.1;;;;;;;-1.33;81.7041;98269.63;;;;
2021/04/28 01:22:20;;;;;;;28.6;20.3;;;;;;;-1.44;81.82617;98273.94;;;;
2021/04/28 01:32:17;;;;;;;29.3;19;;;;;;;-1.6;82.37402;98264.14;;;;
2021/04/28 01:42:14;;;;;;;27.5;19.3;;;;;;;-1.63;83.92285;98267.23;;;;
2021/04/28 01:52:11;;;;;;;23;18.9;;;;;;;-1.71;84.94824;98267.64;;;;
2021/04/28 02:02:09;;;;;;;35.9;20.4;;;;;;;-1.71;87.26563;98262.35;;;;
2021/04/28 02:12:06;;;;;;;24.8;19.1;;;;;;;-1.91;87.49414;98219.73;;;;
2021/04/28 02:22:03;;;;;;;28.9;22.3;;;;;;;-1.81;87.13379;98244.48;;;;
2021/04/28 02:32:00;;;;;;;24.5;19.9;;;;;;;-1.91;86.73145;98249.58;;;;
2021/04/28 02:41:57;;;;;;;27.1;21.4;;;;;;;-2.08;86.78418;98246.05;;;;
2021/04/28 02:51:55;;;;;;;23.9;20.3;;;;;;;-2.14;87.87402;98254.92;;;;
2021/04/28 03:01:52;;;;;;;30.6;22.5;;;;;;;-2.22;87.95801;98253.44;;;;
2021/04/28 03:11:49;;;;;;;23.6;20.4;;;;;;;-2.19;89.52344;98246.91;;;;
2021/04/28 03:21:46;;;;;;;26.2;22;;;;;;;-2.2;92.25879;98251.39;;;;
2021/04/28 03:31:43;;;;;;;25.2;19.4;;;;;;;-2.21;91.3623;98256.89;;;;
2021/04/28 03:41:40;;;;;;;22.7;17.9;;;;;;;-2.15;91.55078;98246.19;;;;
2021/04/28 03:51:38;;;;;;;35.6;19.4;;;;;;;-2.04;92.41113;98260.39;;;;
2021/04/28 04:01:36;;;;;;;30.1;19.5;;;;;;;-1.77;93.54004;98261.44;;;;
2021/04/28 04:11:32;;;;;;;21.7;19.4;;;;;;;-1.56;93.60938;98268.7;;;;
2021/04/28 04:21:29;;;;;;;26.7;18.3;;;;;;;-1.23;92.20508;98283.02;;;;
2021/04/28 04:31:26;;;;;;;20.6;14.8;;;;;;;-0.83;89.27344;98275.72;;;;
2021/04/28 04:41:24;;;;;;;20.2;17.7;;;;;;;-0.33;86.36328;98280.94;;;;
2021/04/28 04:51:21;;;;;;;29;17.9;;;;;;;0.12;83.94043;98280.7;;;;
2021/04/28 05:01:18;;;;;;;23.5;16.1;;;;;;;0.6;82.49316;98284.39;;;;
2021/04/28 05:11:16;;;;;;;27;16.2;;;;;;;1.02;79.90723;98282.66;;;;
2021/04/28 05:21:13;;;;;;;19.3;17.2;;;;;;;1.65;78.61035;98286.27;;;;
2021/04/28 05:31:11;;;;;;;26.5;18.8;;;;;;;2.02;74.82031;98285.13;;;;
2021/04/28 05:41:09;;;;;;;23.2;18;;;;;;;2.56;71.82031;98278.67;;;;
2021/04/28 05:51:06;;;;;;;20.3;15.8;;;;;;;3.15;71.00879;98292.3;;;;
2021/04/28 06:01:04;;;;;;;21.5;17.5;;;;;;;3.66;69.5127;98282.38;;;;
2021/04/28 06:11:02;;;;;;;21;16.4;;;;;;;4.26;67.14746;98276.86;;;;
2021/04/28 06:21:00;;;;;;;24.3;14.4;;;;;;;4.81;62.70801;98288.28;;;;
2021/04/28 06:30:58;;;;;;;17.4;12.6;;;;;;;5.37;61.21191;98285.98;;;;
2021/04/28 06:40:56;;;;;;;13.7;11.6;;;;;;;5.82;59.53809;98272.18;;;;
2021/04/28 06:50:54;;;;;;;19.3;15;;;;;;;6.28;57.55664;98256.39;;;;
2021/04/28 07:00:52;;;;;;;19.7;12.2;;;;;;;6.82;56.91895;98252.44;;;;
2021/04/28 07:10:50;;;;;;;15.6;11.8;;;;;;;7.24;55.5332;98246.15;;;;
2021/04/28 07:20:48;;;;;;;19.9;12.3;;;;;;;7.61;54.44238;98246.02;;;;
2021/04/28 07:30:46;;;;;;;16.1;11.5;;;;;;;8.05;53.8418;98250.83;;;;
2021/04/28 07:40:45;;;;;;;17.2;11.2;;;;;;;8.52;53.12109;98255.77;;;;
2021/04/28 07:50:44;;;;;;;16.7;13;;;;;;;9.17;54.28516;98257.22;;;;
2021/04/28 08:00:42;;;;;;;13.5;10.7;;;;;;;9.44;51.06738;98259.8;;;;
2021/04/28 08:10:40;;;;;;;17.5;11.4;;;;;;;9.86;48.7666;98253.81;;;;
2021/04/28 08:20:39;;;;;;;15.8;10;;;;;;;10.2;48.48633;98245.12;;;;
2021/04/28 08:30:39;;;;;;;13.1;10.3;;;;;;;10.49;48.25684;98247.21;;;;
2021/04/28 08:40:37;;;;;;;12.4;8.7;;;;;;;10.81;48.07617;98229.8;;;;
2021/04/28 08:50:37;;;;;;;13.9;9;;;;;;;11.24;46.73242;98225.19;;;;
2021/04/28 09:00:33;;;;;;;11;8.3;;;;;;;11.67;44.82617;98230.45;;;;
2021/04/28 09:10:32;;;;;;;11.1;7.4;;;;;;;11.94;45.21973;98218.48;;;;
2021/04/28 09:20:33;;;;;;;15.7;8.1;;;;;;;12.41;45.69238;98217.25;;;;
2021/04/28 09:30:31;;;;;;;14.2;7.3;;;;;;;12.59;42.79297;98197.1;;;;
2021/04/28 09:40:29;;;;;;;9.3;5.9;;;;;;;12.86;42.77344;98182.23;;;;
2021/04/28 09:50:28;;;;;;;9.1;6.2;;;;;;;13;41.11133;98179.24;;;;
2021/04/28 10:00:28;;;;;;;14.8;6.3;;;;;;;13.4;38.7959;98160.54;;;;
2021/04/28 10:10:26;;;;;;;13.3;5.8;;;;;;;13.28;39.35938;98157.82;;;;
2021/04/28 10:20:25;;;;;;;7;4.9;;;;;;;13.47;38.60742;98117.46;;;;
2021/04/28 10:30:24;;;;;;;7.5;4.6;;;;;;;13.66;38.8877;98114.2;;;;
2021/04/28 10:40:23;;;;;;;13.8;7.3;;;;;;;13.92;37.94531;98109.21;;;;
2021/04/28 10:50:23;;;;;;;8.4;5.3;;;;;;;13.91;37.16309;98100.32;;;;
2021/04/28 11:00:22;;;;;;;9.8;4.6;;;;;;;14.43;36.66504;98088.7;;;;
2021/04/28 11:10:21;;;;;;;8.3;5.7;;;;;;;14.4;37.51563;98079.34;;;;
2021/04/28 11:20:20;;;;;;;9;5;;;;;;;14.5;37.87988;98067.22;;;;
2021/04/28 11:30:19;;;;;;;8.5;5.1;;;;;;;15;37.95898;98064.68;;;;
2021/04/28 11:40:19;;;;;;;7.5;4.6;;;;;;;15.21;36.81055;98058.2;;;;
2021/04/28 11:50:18;;;;;;;8.6;5.1;;;;;;;15.48;35.64453;98041.84;;;;
2021/04/28 12:00:19;;;;;;;8.1;4.6;;;;;;;15.43;34.33496;98033.16;;;;
2021/04/28 12:10:17;;;;;;;7.7;5.1;;;;;;;15.63;34.92773;98023.16;;;;
2021/04/28 12:20:16;;;;;;;7.3;4.8;;;;;;;15.76;33.80469;98008.34;;;;
2021/04/28 12:30:16;;;;;;;8.8;5.2;;;;;;;15.86;34.36816;98005.06;;;;
2021/04/28 12:40:15;;;;;;;11.4;5.3;;;;;;;16;33.98535;97986.34;;;;
2021/04/28 12:50:14;;;;;;;6.3;4.4;;;;;;;16.16;33.29297;97973.45;;;;
2021/04/28 13:00:14;;;;;;;5.2;3.4;;;;;;;16.45;31.54102;97969.34;;;;
2021/04/28 13:10:13;;;;;;;11.6;6;;;;;;;16.5;32.04297;97966.31;;;;
2021/04/28 13:20:13;;;;;;;45.5;33.5;;;;;;;16.5;32.75098;97950.78;;;;
2021/04/28 13:30:12;;;;;;;45.6;27.8;;;;;;;16.23;31.91895;97932.02;;;;
2021/04/28 13:40:11;;;;;;;19.9;14.5;;;;;;;16.49;32.32031;97926.66;;;;
2021/04/28 13:50:11;;;;;;;35.7;24.9;;;;;;;16.13;32.4209;97919.01;;;;
2021/04/28 14:00:10;;;;;;;11.9;9.1;;;;;;;16.18;31.9043;97916.77;;;;
2021/04/28 14:10:10;;;;;;;15.3;8.5;;;;;;;16.18;32.07715;97899.67;;;;
2021/04/28 14:20:09;;;;;;;5.8;4;;;;;;;16.83;31.2666;97895.8;;;;
2021/04/28 14:30:08;;;;;;;7.4;4.2;;;;;;;17.3;32.08984;97889.88;;;;
2021/04/28 14:40:08;;;;;;;9;5.2;;;;;;;17.27;30.38086;97874.27;;;;
2021/04/28 14:50:07;;;;;;;10.6;4.1;;;;;;;16.93;30.06738;97878.84;;;;
2021/04/28 15:00:07;;;;;;;8.3;4.9;;;;;;;17.47;31.87012;97861.3;;;;
2021/04/28 15:10:07;;;;;;;8.5;4.7;;;;;;;17.31;29.74414;97863.42;;;;
2021/04/28 15:20:06;;;;;;;9.4;5;;;;;;;18.22;28.89746;97843.88;;;;
2021/04/28 15:30:05;;;;;;;10.8;5.5;;;;;;;17.81;28.6377;97838.38;;;;
2021/04/28 15:40:05;;;;;;;13.9;5.3;;;;;;;19.99;28.52246;97838.34;;;;
2021/04/28 15:50:05;;;;;;;10.9;5.2;;;;;;;19.79;26.38086;97828.91;;;;
2021/04/28 16:00:05;;;;;;;10.1;5.4;;;;;;;20.18;26.55664;97815.32;;;;
2021/04/28 16:10:05;;;;;;;9.9;6.3;;;;;;;20.11;26.96191;97812.58;;;;
2021/04/28 16:20:05;;;;;;;13.8;6.6;;;;;;;18.1;28.33105;97810.25;;;;
2021/04/28 16:30:05;;;;;;;9.7;6.2;;;;;;;16.64;30.94043;97806.08;;;;
2021/04/28 16:40:05;;;;;;;12.3;5;;;;;;;15.67;31.87891;97799.34;;;;
2021/04/28 16:50:04;;;;;;;18.6;12.7;;;;;;;15.21;32.78125;97801.11;;;;
2021/04/28 17:00:04;;;;;;;31.7;26.4;;;;;;;14.9;33.47461;97804.72;;;;
2021/04/28 17:10:03;;;;;;;10.3;6.9;;;;;;;14.78;33.9375;97804.86;;;;
2021/04/28 17:20:05;;;;;;;14.5;10;;;;;;;15.3;33.38965;97804.42;;;;
2021/04/28 17:30:01;;;;;;;9.9;7.6;;;;;;;14.31;34.70801;97795.95;;;;
2021/04/28 17:40:00;;;;;;;15.8;11.9;;;;;;;13.42;36.4541;97799.09;;;;
2021/04/28 17:50:00;;;;;;;19.7;17.6;;;;;;;12.7;38.34473;97796.55;;;;
2021/04/28 17:59:59;;;;;;;10.3;7.9;;;;;;;12.21;38.8623;97799.27;;;;
2021/04/28 18:09:57;;;;;;;20.4;12.9;;;;;;;11.69;40.57715;97814.44;;;;
2021/04/28 18:19:56;;;;;;;35.1;25.2;;;;;;;11.13;42.03223;97823.98;;;;
2021/04/28 18:29:55;;;;;;;47.1;25.9;;;;;;;10.36;43.07422;97822.56;;;;
2021/04/28 18:39:54;;;;;;;31.5;20.8;;;;;;;9.61;44.84277;97819.44;;;;
2021/04/28 18:49:53;;;;;;;18.4;12.2;;;;;;;9.06;45.86328;97813.16;;;;
2021/04/28 18:59:51;;;;;;;15.2;13;;;;;;;8.63;47.16699;97818.5;;;;
2021/04/28 19:09:50;;;;;;;10.9;7.5;;;;;;;8.5;49.56445;97819.43;;;;
2021/04/28 19:19:48;;;;;;;10.1;8.9;;;;;;;8.27;50.46582;97807.15;;;;
2021/04/28 19:29:46;;;;;;;10.1;8.1;;;;;;;8.18;50.07227;97807.14;;;;
2021/04/28 19:39:45;;;;;;;16;9.3;;;;;;;7.79;51.22363;97815.16;;;;
2021/04/28 19:49:44;;;;;;;22.4;15.4;;;;;;;7.32;54.72168;97809.38;;;;
2021/04/28 19:59:42;;;;;;;23.5;15.4;;;;;;;7.05;53.94434;97807.58;;;;
2021/04/28 20:09:40;;;;;;;22.7;19.8;;;;;;;6.76;56.51758;97809.07;;;;
2021/04/28 20:19:38;;;;;;;25.7;20.2;;;;;;;6.58;56.5293;97803.55;;;;
2021/04/28 20:29:38;;;;;;;31.6;21.1;;;;;;;6.51;58.74512;97808.52;;;;
2021/04/28 20:39:34;;;;;;;22.4;19.2;;;;;;;6.46;60.80469;97811.29;;;;
2021/04/28 20:49:33;;;;;;;25.1;20.6;;;;;;;6.19;60.87988;97822.02;;;;
2021/04/28 20:59:31;;;;;;;33.8;22.4;;;;;;;5.91;60.2002;97815.06;;;;
2021/04/28 21:09:29;;;;;;;22.8;18.1;;;;;;;5.72;62.05664;97817.8;;;;
2021/04/28 21:19:27;;;;;;;20.9;18.6;;;;;;;5.53;64.12402;97809.02;;;;
2021/04/28 21:29:25;;;;;;;26;22.5;;;;;;;5.51;66.31445;97812.01;;;;
2021/04/28 21:39:23;;;;;;;29.3;22.3;;;;;;;5.39;64.91895;97814.34;;;;
2021/04/28 21:49:21;;;;;;;35.1;23.1;;;;;;;5.44;64.63672;97816.94;;;;
2021/04/28 21:59:19;;;;;;;27;21;;;;;;;5.21;65.99805;97822.38;;;;
2021/04/28 22:09:17;;;;;;;34.2;23.3;;;;;;;5.34;68.19824;97818.98;;;;
2021/04/28 22:19:15;;;;;;;30.9;21.2;;;;;;;4.98;66.44434;97824.06;;;;
2021/04/28 22:29:13;;;;;;;21.1;17.8;;;;;;;4.73;69.28516;97811.88;;;;
2021/04/28 22:39:11;;;;;;;23.1;19.8;;;;;;;4.54;73.54492;97813.75;;;;
2021/04/28 22:49:09;;;;;;;20.6;16.5;;;;;;;4.32;72.66211;97816.95;;;;
2021/04/28 22:59:07;;;;;;;18.5;16.7;;;;;;;4.01;73.27734;97808.52;;;;
2021/04/28 23:09:05;;;;;;;28.9;19.6;;;;;;;3.8;75.76465;97799.16;;;;
2021/04/28 23:19:03;;;;;;;32.5;21;;;;;;;3.7;75.46875;97788.6;;;;
2021/04/28 23:29:01;;;;;;;33.9;24.2;;;;;;;3.34;77.44727;97790.8;;;;
2021/04/28 23:38:58;;;;;;;35.9;25.9;;;;;;;3.24;80.74414;97796.22;;;;
2021/04/28 23:48:56;;;;;;;36;29.2;;;;;;;3.1;79.85156;97786.48;;;;
2021/04/28 23:58:54;;;;;;;29.5;23.5;;;;;;;2.98;79.48633;97781.53;;;;
